Impacts METAR Board
IDs:

KDFW - Dallas-Ft Worth Intl, TX, US

Updated at: 1200 UTC 19 Jun 2018
Potential Impact None Slight Moderate High
Time 19/00Z 19/01Z 19/02Z 19/03Z 19/04Z 19/05Z 19/06Z 19/07Z 19/08Z 19/09Z 19/10Z 19/11Z 19/12Z
Temp89 85 82 81 80 78 77 77 76 74 73 73 73
Dewpt69 70 69 71 69 69 70 70 70 71 73 73 73
Altim29.90 29.90 29.93 29.95 29.95 29.97 29.95 29.94 29.94 29.94 29.95 29.96 29.97
VIS10 10 10 10 10 10 10 10 10 10 6 10 10
CIG65 -- -- -- -- 28 21 20 18 16 7 28 16
CoverBKNFEWFEWFEWFEWBKNBKNBKNOVCBKNOVCBKNBKN
FltCatVFRVFRVFRVFRVFRMVFRMVFRMVFRMVFRMVFRIFRMVFRMVFR
WX--------------------BR----
WDir110130130130130140140140160130140140120
WSpd10 19 15 12 11 14 13 15 13 10 7 6 7
WGst-- 26 -- 19 -- -- -- -- -- -- -- -- --
Raw hourly METARs
KDFW 182353Z 11010KT 10SM SCT050 BKN065TCU BKN085 32/21 A2990 RMK AO2 SLP115 TCU ALQDS SHRA DSNT E T03170206 10333 20306 56012
KDFW 190053Z 13019G26KT 10SM FEW047 FEW085 29/21 A2990 RMK AO2 PK WND 12026/0046 SLP117 T02940211
KDFW 190153Z 13015KT 10SM FEW047 FEW300 28/21 A2993 RMK AO2 PK WND 14026/0108 SLP128 T02780206
KDFW 190253Z 13012G19KT 10SM FEW030 FEW300 27/22 A2995 RMK AO2 SLP132 T02720217 53016
KDFW 190353Z 13011KT 10SM FEW029 27/21 A2995 RMK AO2 SLP135 T02670206
KDFW 190453Z 14014KT 10SM BKN028 BKN300 26/21 A2997 RMK AO2 SLP138 T02560206
KDFW 190553Z 14013KT 10SM BKN021 BKN028 BKN039 25/21 A2995 RMK AO2 SLP133 T02500211 10317 20250 403330250 50002
KDFW 190653Z 14015KT 10SM BKN020 BKN026 25/21 A2994 RMK AO2 SLP127 T02500211
KDFW 190753Z 16013KT 10SM BKN018 OVC026 24/21 A2994 RMK AO2 SLP128 T02440211
KDFW 190853Z 13010KT 10SM BKN016 BKN021 BKN027 23/22 A2994 RMK AO2 RAB19E38 SLP131 P0000 60000 T02330217 55003
KDFW 190953Z 14007KT 6SM BR BKN007 BKN011 OVC018 23/23 A2995 RMK AO2 RAB22E46 CIG 003V008 SLP133 P0002 T02280228
KDFW 191053Z 14006KT 10SM SCT021 BKN028 BKN046 23/23 A2996 RMK AO2 RAB06E15 SLP135 P0000 T02280228
KDFW 191153Z 12007KT 10SM BKN016 BKN020 BKN300 23/23 A2997 RMK AO2 SLP139 60002 70002 T02280228 10250 20228 51008



Page loaded:  12:36 UTC  |   05:36 AM Pacific  |   06:36 AM Mountain  |   07:36 AM Central  |   08:36 AM Eastern

 

ADVISORIES

FORECASTS

FORECASTS

OBSERVATIONS

USER TOOLS

ABOUT US